This is the latest recevied weather packets stored in our database for station/object WA2TQI. If no packets are shown the sender has not sent any weather packets the latest 10 day(s).
| Time | Temp. | Humidity | Pressure | Rain* | Wind** | Luminosity | Snow |
|---|---|---|---|---|---|---|---|
| 1777838660 | 15.56° C | 41% | 1013.7 hPa | 0 mm | - | - | - |
| 1777836839 | 15.56° C | 40% | 1013.5 hPa | 0 mm | - | - | - |
| 1777833201 | 14.44° C | 41% | 1014.7 hPa | 0 mm | - | - | - |
| 1777832898 | 13.89° C | 42% | 1014.4 hPa | 0 mm | - | - | - |
| 1777832597 | 14.44° C | 42% | 1014.6 hPa | 0 mm | - | - | - |
| 1777832294 | 14.44° C | 43% | 1014.5 hPa | 0 mm | - | - | - |
| 1777831991 | 14.44° C | 42% | 1014.6 hPa | 0 mm | - | - | - |
| 1777831687 | 14.44° C | 44% | 1014.6 hPa | 0 mm | - | - | - |
| 1777831386 | 14.44° C | 44% | 1014.7 hPa | 0 mm | - | - | - |
| 1777829262 | 12.78° C | 48% | 1014.9 hPa | 0 mm | - | - | - |
| 1777828049 | 12.78° C | 48% | 1014.8 hPa | 0 mm | - | - | - |
| 1777826836 | 13.33° C | 47% | 1014.8 hPa | 0 mm | - | - | - |
| 1777825928 | 13.33° C | 48% | 1015 hPa | 0 mm | - | - | - |
| 1777825624 | 12.22° C | 50% | 1015 hPa | 0 mm | - | - | - |
| 1777825323 | 11.67° C | 51% | 1015.2 hPa | 0 mm | - | - | - |
| 1777824716 | 11.67° C | 51% | 1015.2 hPa | 0 mm | - | - | - |
| 1777824108 | 12.22° C | 50% | 1015.1 hPa | 0 mm | - | - | - |
| 1777822595 | 11.67° C | 54% | 1015.4 hPa | 0 mm | - | - | - |
| 1777822292 | 12.22° C | 51% | 1015.2 hPa | 0 mm | - | - | - |
| 1777821989 | 11.11° C | 52% | 1015.5 hPa | 0 mm | - | - | - |
| 1777821686 | 10.56° C | 56% | 1015.4 hPa | 0 mm | - | - | - |
| 1777821384 | 11.67° C | 54% | 1015.5 hPa | 0 mm | - | - | - |
| 1777821081 | 10.56° C | 53% | 1015.5 hPa | 0 mm | - | - | - |
| 1777820778 | 10.56° C | 56% | 1015.4 hPa | 0 mm | - | - | - |
| 1777820474 | 10.56° C | 55% | 1015.4 hPa | 0 mm | - | - | - |
* Rain latest hour (hover to see other rain measurements)
** Current wind speed in m/s (hover to see current wind gust speed)